sensor_id;sensor_type;location;lat;lon;timestamp;P1;durP1;ratioP1;P2;durP2;ratioP2
4325;SDS011;58429;49.826;10.880;2022-11-20T00:00:10;32.7;;;21.4;;
4325;SDS011;58429;49.826;10.880;2022-11-20T00:01:11;33.1;;;21.7;;
4325;SDS011;58429;49.826;10.880;2022-11-20T00:02:10;33.1;;;21.7;;
4325;SDS011;58429;49.826;10.880;2022-11-20T00:03:10;33.1;;;21.7;;
4325;SDS011;58429;49.826;10.880;2022-11-20T00:04:10;32.5;;;22.3;;
4325;SDS011;58429;49.826;10.880;2022-11-20T00:05:10;32.5;;;22.3;;
4325;SDS011;58429;49.826;10.880;2022-11-20T00:06:11;32.5;;;22.3;;
4325;SDS011;58429;49.826;10.880;2022-11-20T00:07:10;35.6;;;23.5;;
4325;SDS011;58429;49.826;10.880;2022-11-20T00:08:10;35.6;;;23.5;;
4325;SDS011;58429;49.826;10.880;2022-11-20T00:09:10;35.6;;;23.5;;
4325;SDS011;58429;49.826;10.880;2022-11-20T00:10:10;33.7;;;22;;
4325;SDS011;58429;49.826;10.880;2022-11-20T00:11:10;33.7;;;22;;
4325;SDS011;58429;49.826;10.880;2022-11-20T00:12:10;33.7;;;22;;
4325;SDS011;58429;49.826;10.880;2022-11-20T00:13:10;32.9;;;21.9;;
4325;SDS011;58429;49.826;10.880;2022-11-20T00:14:11;32.9;;;21.9;;
4325;SDS011;58429;49.826;10.880;2022-11-20T00:15:10;32.9;;;21.9;;
4325;SDS011;58429;49.826;10.880;2022-11-20T00:16:11;33.3;;;21.1;;
4325;SDS011;58429;49.826;10.880;2022-11-20T00:17:10;33.3;;;21.1;;
4325;SDS011;58429;49.826;10.880;2022-11-20T00:18:10;33.3;;;21.1;;
4325;SDS011;58429;49.826;10.880;2022-11-20T00:19:10;33.3;;;20.4;;
4325;SDS011;58429;49.826;10.880;2022-11-20T00:20:10;33.3;;;20.4;;
4325;SDS011;58429;49.826;10.880;2022-11-20T00:21:11;33.3;;;20.4;;
4325;SDS011;58429;49.826;10.880;2022-11-20T00:22:10;34.1;;;20.1;;
4325;SDS011;58429;49.826;10.880;2022-11-20T00:23:10;34.1;;;20.1;;
4325;SDS011;58429;49.826;10.880;2022-11-20T00:24:10;34.1;;;20.1;;
4325;SDS011;58429;49.826;10.880;2022-11-20T00:25:10;32.7;;;20.9;;
4325;SDS011;58429;49.826;10.880;2022-11-20T00:26:11;32.7;;;20.9;;
4325;SDS011;58429;49.826;10.880;2022-11-20T00:27:10;32.7;;;20.9;;
4325;SDS011;58429;49.826;10.880;2022-11-20T00:28:11;39.2;;;24.1;;
4325;SDS011;58429;49.826;10.880;2022-11-20T00:29:10;39.2;;;24.1;;
4325;SDS011;58429;49.826;10.880;2022-11-20T00:30:10;39.2;;;24.1;;
4325;SDS011;58429;49.826;10.880;2022-11-20T00:31:11;35.5;;;22.5;;
4325;SDS011;58429;49.826;10.880;2022-11-20T00:32:10;35.5;;;22.5;;
4325;SDS011;58429;49.826;10.880;2022-11-20T00:33:10;35.5;;;22.5;;
4325;SDS011;58429;49.826;10.880;2022-11-20T00:34:10;36.4;;;22.1;;
4325;SDS011;58429;49.826;10.880;2022-11-20T00:35:10;36.4;;;22.1;;
4325;SDS011;58429;49.826;10.880;2022-11-20T00:36:12;36.4;;;22.1;;
4325;SDS011;58429;49.826;10.880;2022-11-20T00:37:10;34.8;;;20.6;;
4325;SDS011;58429;49.826;10.880;2022-11-20T00:38:10;34.8;;;20.6;;
4325;SDS011;58429;49.826;10.880;2022-11-20T00:39:10;34.8;;;20.6;;
4325;SDS011;58429;49.826;10.880;2022-11-20T00:40:10;35.2;;;21.6;;
4325;SDS011;58429;49.826;10.880;2022-11-20T00:41:11;35.2;;;21.6;;
4325;SDS011;58429;49.826;10.880;2022-11-20T00:42:10;35.2;;;21.6;;
4325;SDS011;58429;49.826;10.880;2022-11-20T00:43:10;34.8;;;22.4;;
4325;SDS011;58429;49.826;10.880;2022-11-20T00:44:10;34.8;;;22.4;;
4325;SDS011;58429;49.826;10.880;2022-11-20T00:45:10;34.8;;;22.4;;
4325;SDS011;58429;49.826;10.880;2022-11-20T00:46:12;36.7;;;23.8;;
4325;SDS011;58429;49.826;10.880;2022-11-20T00:47:10;36.7;;;23.8;;
4325;SDS011;58429;49.826;10.880;2022-11-20T00:48:10;36.7;;;23.8;;
4325;SDS011;58429;49.826;10.880;2022-11-20T00:49:10;40.5;;;25.3;;
4325;SDS011;58429;49.826;10.880;2022-11-20T00:50:10;40.5;;;25.3;;
4325;SDS011;58429;49.826;10.880;2022-11-20T00:51:11;40.5;;;25.3;;
4325;SDS011;58429;49.826;10.880;2022-11-20T00:52:10;37.9;;;23.6;;
4325;SDS011;58429;49.826;10.880;2022-11-20T00:53:10;37.9;;;23.6;;
4325;SDS011;58429;49.826;10.880;2022-11-20T00:54:10;37.9;;;23.6;;
4325;SDS011;58429;49.826;10.880;2022-11-20T00:55:10;37.9;;;23.6;;
4325;SDS011;58429;49.826;10.880;2022-11-20T00:56:11;36.8;;;23.2;;
4325;SDS011;58429;49.826;10.880;2022-11-20T00:57:10;36.8;;;23.2;;
4325;SDS011;58429;49.826;10.880;2022-11-20T00:58:10;36.8;;;23.2;;
4325;SDS011;58429;49.826;10.880;2022-11-20T00:59:10;38.2;;;23.7;;
4325;SDS011;58429;49.826;10.880;2022-11-20T01:00:10;38.2;;;23.7;;
4325;SDS011;58429;49.826;10.880;2022-11-20T01:01:11;38.2;;;23.7;;
4325;SDS011;58429;49.826;10.880;2022-11-20T01:02:10;34.8;;;22.9;;
4325;SDS011;58429;49.826;10.880;2022-11-20T01:03:10;34.8;;;22.9;;
4325;SDS011;58429;49.826;10.880;2022-11-20T01:04:10;34.8;;;22.9;;
4325;SDS011;58429;49.826;10.880;2022-11-20T01:05:10;38;;;25;;
4325;SDS011;58429;49.826;10.880;2022-11-20T01:06:11;38;;;25;;
4325;SDS011;58429;49.826;10.880;2022-11-20T01:07:10;38;;;25;;
4325;SDS011;58429;49.826;10.880;2022-11-20T01:08:10;37.7;;;23.8;;
4325;SDS011;58429;49.826;10.880;2022-11-20T01:09:11;37.7;;;23.8;;
4325;SDS011;58429;49.826;10.880;2022-11-20T01:10:10;37.7;;;23.8;;
4325;SDS011;58429;49.826;10.880;2022-11-20T01:11:11;35.8;;;23.4;;
4325;SDS011;58429;49.826;10.880;2022-11-20T01:12:10;35.8;;;23.4;;
4325;SDS011;58429;49.826;10.880;2022-11-20T01:13:10;35.8;;;23.4;;
4325;SDS011;58429;49.826;10.880;2022-11-20T01:14:11;38.7;;;26.6;;
4325;SDS011;58429;49.826;10.880;2022-11-20T01:15:10;38.7;;;26.6;;
4325;SDS011;58429;49.826;10.880;2022-11-20T01:16:11;38.7;;;26.6;;
4325;SDS011;58429;49.826;10.880;2022-11-20T01:17:10;36.2;;;21.5;;
4325;SDS011;58429;49.826;10.880;2022-11-20T01:18:10;36.2;;;21.5;;
4325;SDS011;58429;49.826;10.880;2022-11-20T01:19:11;36.2;;;21.5;;
4325;SDS011;58429;49.826;10.880;2022-11-20T01:20:10;34.2;;;22.1;;
4325;SDS011;58429;49.826;10.880;2022-11-20T01:21:11;34.2;;;22.1;;
4325;SDS011;58429;49.826;10.880;2022-11-20T01:22:10;34.2;;;22.1;;
4325;SDS011;58429;49.826;10.880;2022-11-20T01:23:10;35.5;;;21.5;;
4325;SDS011;58429;49.826;10.880;2022-11-20T01:24:11;35.5;;;21.5;;
4325;SDS011;58429;49.826;10.880;2022-11-20T01:25:10;35.5;;;21.5;;
4325;SDS011;58429;49.826;10.880;2022-11-20T01:26:11;37.6;;;23.2;;
4325;SDS011;58429;49.826;10.880;2022-11-20T01:27:10;37.6;;;23.2;;
4325;SDS011;58429;49.826;10.880;2022-11-20T01:28:10;37.6;;;23.2;;
4325;SDS011;58429;49.826;10.880;2022-11-20T01:29:12;34.5;;;21.4;;
4325;SDS011;58429;49.826;10.880;2022-11-20T01:30:11;34.5;;;21.4;;
4325;SDS011;58429;49.826;10.880;2022-11-20T01:31:11;34.5;;;21.4;;
4325;SDS011;58429;49.826;10.880;2022-11-20T01:32:10;36.4;;;21.5;;
4325;SDS011;58429;49.826;10.880;2022-11-20T01:33:10;36.4;;;21.5;;
4325;SDS011;58429;49.826;10.880;2022-11-20T01:34:11;36.4;;;21.5;;
4325;SDS011;58429;49.826;10.880;2022-11-20T01:35:10;36.7;;;21.1;;
4325;SDS011;58429;49.826;10.880;2022-11-20T01:36:11;36.7;;;21.1;;
4325;SDS011;58429;49.826;10.880;2022-11-20T01:37:10;36.7;;;21.1;;
4325;SDS011;58429;49.826;10.880;2022-11-20T01:38:10;33.4;;;20.9;;
4325;SDS011;58429;49.826;10.880;2022-11-20T01:39:12;33.4;;;20.9;;
4325;SDS011;58429;49.826;10.880;2022-11-20T01:40:11;33.4;;;20.9;;
4325;SDS011;58429;49.826;10.880;2022-11-20T01:41:11;35.4;;;21.2;;
4325;SDS011;58429;49.826;10.880;2022-11-20T01:42:10;35.4;;;21.2;;
4325;SDS011;58429;49.826;10.880;2022-11-20T01:43:17;35.4;;;21.2;;
4325;SDS011;58429;49.826;10.880;2022-11-20T01:44:11;34.1;;;20.6;;
4325;SDS011;58429;49.826;10.880;2022-11-20T01:46:15;34.1;;;20.6;;
4325;SDS011;58429;49.826;10.880;2022-11-20T01:46:16;34.1;;;20.6;;
4325;SDS011;58429;49.826;10.880;2022-11-20T01:47:11;34.8;;;21.5;;
4325;SDS011;58429;49.826;10.880;2022-11-20T01:48:10;34.8;;;21.5;;
4325;SDS011;58429;49.826;10.880;2022-11-20T01:49:11;34.8;;;21.5;;
4325;SDS011;58429;49.826;10.880;2022-11-20T01:50:11;31.5;;;20.7;;
4325;SDS011;58429;49.826;10.880;2022-11-20T01:51:12;31.5;;;20.7;;
4325;SDS011;58429;49.826;10.880;2022-11-20T01:52:12;31.5;;;20.7;;
4325;SDS011;58429;49.826;10.880;2022-11-20T01:53:11;34.8;;;21.1;;
4325;SDS011;58429;49.826;10.880;2022-11-20T01:54:11;34.8;;;21.1;;
4325;SDS011;58429;49.826;10.880;2022-11-20T01:55:11;34.8;;;21.1;;
4325;SDS011;58429;49.826;10.880;2022-11-20T01:56:11;34;;;21.1;;
4325;SDS011;58429;49.826;10.880;2022-11-20T01:57:10;34;;;21.1;;
4325;SDS011;58429;49.826;10.880;2022-11-20T01:58:10;34;;;21.1;;
4325;SDS011;58429;49.826;10.880;2022-11-20T01:59:10;34.3;;;21.6;;
4325;SDS011;58429;49.826;10.880;2022-11-20T02:00:11;34.3;;;21.6;;
4325;SDS011;58429;49.826;10.880;2022-11-20T02:01:10;34.3;;;21.6;;
4325;SDS011;58429;49.826;10.880;2022-11-20T02:02:10;33.8;;;21.2;;
4325;SDS011;58429;49.826;10.880;2022-11-20T02:03:11;33.8;;;21.2;;
4325;SDS011;58429;49.826;10.880;2022-11-20T02:04:10;33.8;;;21.2;;
4325;SDS011;58429;49.826;10.880;2022-11-20T02:05:13;37.7;;;22.5;;
4325;SDS011;58429;49.826;10.880;2022-11-20T02:06:11;37.7;;;22.5;;
4325;SDS011;58429;49.826;10.880;2022-11-20T02:07:10;37.7;;;22.5;;
4325;SDS011;58429;49.826;10.880;2022-11-20T02:08:10;34.9;;;22;;
4325;SDS011;58429;49.826;10.880;2022-11-20T02:09:10;34.9;;;22;;
4325;SDS011;58429;49.826;10.880;2022-11-20T02:10:11;34.9;;;22;;
4325;SDS011;58429;49.826;10.880;2022-11-20T02:11:10;35.8;;;23.8;;
4325;SDS011;58429;49.826;10.880;2022-11-20T02:12:10;35.8;;;23.8;;
4325;SDS011;58429;49.826;10.880;2022-11-20T02:13:10;35.8;;;23.8;;
4325;SDS011;58429;49.826;10.880;2022-11-20T02:14:10;35.1;;;22;;
4325;SDS011;58429;49.826;10.880;2022-11-20T02:15:10;35.1;;;22;;
4325;SDS011;58429;49.826;10.880;2022-11-20T02:16:13;35.1;;;22;;
4325;SDS011;58429;49.826;10.880;2022-11-20T02:17:11;34.1;;;21.2;;
4325;SDS011;58429;49.826;10.880;2022-11-20T02:18:10;34.1;;;21.2;;
4325;SDS011;58429;49.826;10.880;2022-11-20T02:19:13;34.1;;;21.2;;
4325;SDS011;58429;49.826;10.880;2022-11-20T02:20:10;33.4;;;20.1;;
4325;SDS011;58429;49.826;10.880;2022-11-20T02:21:13;33.4;;;20.1;;
4325;SDS011;58429;49.826;10.880;2022-11-20T02:22:11;33.4;;;20.1;;
4325;SDS011;58429;49.826;10.880;2022-11-20T02:23:12;32.9;;;20;;
4325;SDS011;58429;49.826;10.880;2022-11-20T02:24:11;32.9;;;20;;
4325;SDS011;58429;49.826;10.880;2022-11-20T02:25:10;32.9;;;20;;
4325;SDS011;58429;49.826;10.880;2022-11-20T02:26:11;31.9;;;20.3;;
4325;SDS011;58429;49.826;10.880;2022-11-20T02:27:11;31.9;;;20.3;;
4325;SDS011;58429;49.826;10.880;2022-11-20T02:28:10;31.9;;;20.3;;
4325;SDS011;58429;49.826;10.880;2022-11-20T02:29:10;33;;;20.5;;
4325;SDS011;58429;49.826;10.880;2022-11-20T02:30:11;33;;;20.5;;
4325;SDS011;58429;49.826;10.880;2022-11-20T02:31:10;33;;;20.5;;
4325;SDS011;58429;49.826;10.880;2022-11-20T02:32:17;35.1;;;21.1;;
4325;SDS011;58429;49.826;10.880;2022-11-20T02:33:10;35.1;;;21.1;;
4325;SDS011;58429;49.826;10.880;2022-11-20T02:34:11;35.1;;;21.1;;
4325;SDS011;58429;49.826;10.880;2022-11-20T02:35:38;30.9;;;18.9;;
4325;SDS011;58429;49.826;10.880;2022-11-20T02:36:11;30.9;;;18.9;;
4325;SDS011;58429;49.826;10.880;2022-11-20T02:37:10;30.9;;;18.9;;
4325;SDS011;58429;49.826;10.880;2022-11-20T02:38:10;34;;;21.4;;
4325;SDS011;58429;49.826;10.880;2022-11-20T02:39:11;34;;;21.4;;
4325;SDS011;58429;49.826;10.880;2022-11-20T02:40:10;34;;;21.4;;
4325;SDS011;58429;49.826;10.880;2022-11-20T02:41:10;34;;;21.4;;
4325;SDS011;58429;49.826;10.880;2022-11-20T02:42:10;34.6;;;20.5;;
4325;SDS011;58429;49.826;10.880;2022-11-20T02:43:10;34.6;;;20.5;;
4325;SDS011;58429;49.826;10.880;2022-11-20T02:44:10;34.6;;;20.5;;
4325;SDS011;58429;49.826;10.880;2022-11-20T02:45:10;34;;;21;;
4325;SDS011;58429;49.826;10.880;2022-11-20T02:46:10;34;;;21;;
4325;SDS011;58429;49.826;10.880;2022-11-20T02:47:10;34;;;21;;
4325;SDS011;58429;49.826;10.880;2022-11-20T02:48:10;35.7;;;22.3;;
4325;SDS011;58429;49.826;10.880;2022-11-20T02:49:10;35.7;;;22.3;;
4325;SDS011;58429;49.826;10.880;2022-11-20T02:50:10;35.7;;;22.3;;
4325;SDS011;58429;49.826;10.880;2022-11-20T02:51:10;35.4;;;21.1;;
4325;SDS011;58429;49.826;10.880;2022-11-20T02:52:10;35.4;;;21.1;;
4325;SDS011;58429;49.826;10.880;2022-11-20T02:53:10;35.4;;;21.1;;
4325;SDS011;58429;49.826;10.880;2022-11-20T02:54:10;34.1;;;21.7;;
4325;SDS011;58429;49.826;10.880;2022-11-20T02:55:11;34.1;;;21.7;;
4325;SDS011;58429;49.826;10.880;2022-11-20T02:56:10;34.1;;;21.7;;
4325;SDS011;58429;49.826;10.880;2022-11-20T02:57:10;34.7;;;21.8;;
4325;SDS011;58429;49.826;10.880;2022-11-20T02:58:10;34.7;;;21.8;;
4325;SDS011;58429;49.826;10.880;2022-11-20T02:59:10;34.7;;;21.8;;
4325;SDS011;58429;49.826;10.880;2022-11-20T03:00:11;38.6;;;23.4;;
4325;SDS011;58429;49.826;10.880;2022-11-20T03:01:10;38.6;;;23.4;;
4325;SDS011;58429;49.826;10.880;2022-11-20T03:02:10;38.6;;;23.4;;
4325;SDS011;58429;49.826;10.880;2022-11-20T03:03:10;36.2;;;21.5;;
4325;SDS011;58429;49.826;10.880;2022-11-20T03:04:11;36.2;;;21.5;;
4325;SDS011;58429;49.826;10.880;2022-11-20T03:05:10;36.2;;;21.5;;
4325;SDS011;58429;49.826;10.880;2022-11-20T03:06:10;32.7;;;21.4;;
4325;SDS011;58429;49.826;10.880;2022-11-20T03:07:10;32.7;;;21.4;;
4325;SDS011;58429;49.826;10.880;2022-11-20T03:08:10;32.7;;;21.4;;
4325;SDS011;58429;49.826;10.880;2022-11-20T03:09:10;35.7;;;22;;
4325;SDS011;58429;49.826;10.880;2022-11-20T03:10:10;35.7;;;22;;
4325;SDS011;58429;49.826;10.880;2022-11-20T03:11:10;35.7;;;22;;
4325;SDS011;58429;49.826;10.880;2022-11-20T03:12:10;36.6;;;22.1;;
4325;SDS011;58429;49.826;10.880;2022-11-20T03:13:10;36.6;;;22.1;;
4325;SDS011;58429;49.826;10.880;2022-11-20T03:14:10;36.6;;;22.1;;
4325;SDS011;58429;49.826;10.880;2022-11-20T03:15:10;38.7;;;22.6;;
4325;SDS011;58429;49.826;10.880;2022-11-20T03:16:11;38.7;;;22.6;;
4325;SDS011;58429;49.826;10.880;2022-11-20T03:17:10;38.7;;;22.6;;
4325;SDS011;58429;49.826;10.880;2022-11-20T03:18:10;34.2;;;20.8;;
4325;SDS011;58429;49.826;10.880;2022-11-20T03:19:11;34.2;;;20.8;;
4325;SDS011;58429;49.826;10.880;2022-11-20T03:20:10;34.2;;;20.8;;
4325;SDS011;58429;49.826;10.880;2022-11-20T03:21:11;32.1;;;19.9;;
4325;SDS011;58429;49.826;10.880;2022-11-20T03:22:10;32.1;;;19.9;;
4325;SDS011;58429;49.826;10.880;2022-11-20T03:23:10;32.1;;;19.9;;
4325;SDS011;58429;49.826;10.880;2022-11-20T03:24:10;35.7;;;21.2;;
4325;SDS011;58429;49.826;10.880;2022-11-20T03:25:10;35.7;;;21.2;;
4325;SDS011;58429;49.826;10.880;2022-11-20T03:26:12;35.7;;;21.2;;
4325;SDS011;58429;49.826;10.880;2022-11-20T03:27:10;37.8;;;22.7;;
4325;SDS011;58429;49.826;10.880;2022-11-20T03:28:10;37.8;;;22.7;;
4325;SDS011;58429;49.826;10.880;2022-11-20T03:29:10;37.8;;;22.7;;
4325;SDS011;58429;49.826;10.880;2022-11-20T03:30:11;31.9;;;20.2;;
4325;SDS011;58429;49.826;10.880;2022-11-20T03:31:11;31.9;;;20.2;;
4325;SDS011;58429;49.826;10.880;2022-11-20T03:32:10;31.9;;;20.2;;
4325;SDS011;58429;49.826;10.880;2022-11-20T03:33:10;33.7;;;21.2;;
4325;SDS011;58429;49.826;10.880;2022-11-20T03:34:11;33.7;;;21.2;;
4325;SDS011;58429;49.826;10.880;2022-11-20T03:35:10;33.7;;;21.2;;
4325;SDS011;58429;49.826;10.880;2022-11-20T03:36:11;36.8;;;20.1;;
4325;SDS011;58429;49.826;10.880;2022-11-20T03:37:10;36.8;;;20.1;;
4325;SDS011;58429;49.826;10.880;2022-11-20T03:38:10;36.8;;;20.1;;
4325;SDS011;58429;49.826;10.880;2022-11-20T03:39:10;33.1;;;21;;
4325;SDS011;58429;49.826;10.880;2022-11-20T03:40:10;33.1;;;21;;
4325;SDS011;58429;49.826;10.880;2022-11-20T03:41:11;33.1;;;21;;
4325;SDS011;58429;49.826;10.880;2022-11-20T03:42:10;33.7;;;20.3;;
4325;SDS011;58429;49.826;10.880;2022-11-20T03:43:11;33.7;;;20.3;;
4325;SDS011;58429;49.826;10.880;2022-11-20T03:44:11;33.7;;;20.3;;
4325;SDS011;58429;49.826;10.880;2022-11-20T03:45:10;33.9;;;20.8;;
4325;SDS011;58429;49.826;10.880;2022-11-20T03:46:10;33.9;;;20.8;;
4325;SDS011;58429;49.826;10.880;2022-11-20T03:47:10;33.9;;;20.8;;
4325;SDS011;58429;49.826;10.880;2022-11-20T03:48:10;33.1;;;21.4;;
4325;SDS011;58429;49.826;10.880;2022-11-20T03:49:10;33.1;;;21.4;;
4325;SDS011;58429;49.826;10.880;2022-11-20T03:50:11;33.1;;;21.4;;
4325;SDS011;58429;49.826;10.880;2022-11-20T03:51:11;34.1;;;21.8;;
4325;SDS011;58429;49.826;10.880;2022-11-20T03:52:10;34.1;;;21.8;;
4325;SDS011;58429;49.826;10.880;2022-11-20T03:53:10;34.1;;;21.8;;
4325;SDS011;58429;49.826;10.880;2022-11-20T03:54:10;36.7;;;22.1;;
4325;SDS011;58429;49.826;10.880;2022-11-20T03:55:10;36.7;;;22.1;;
4325;SDS011;58429;49.826;10.880;2022-11-20T03:56:11;36.7;;;22.1;;
4325;SDS011;58429;49.826;10.880;2022-11-20T03:57:10;35.1;;;22;;
4325;SDS011;58429;49.826;10.880;2022-11-20T03:58:10;35.1;;;22;;
4325;SDS011;58429;49.826;10.880;2022-11-20T03:59:11;35.1;;;22;;
4325;SDS011;58429;49.826;10.880;2022-11-20T04:00:11;33;;;21.4;;
4325;SDS011;58429;49.826;10.880;2022-11-20T04:01:11;33;;;21.4;;
4325;SDS011;58429;49.826;10.880;2022-11-20T04:02:10;33;;;21.4;;
4325;SDS011;58429;49.826;10.880;2022-11-20T04:03:10;36.3;;;20.3;;
4325;SDS011;58429;49.826;10.880;2022-11-20T04:04:15;36.3;;;20.3;;
4325;SDS011;58429;49.826;10.880;2022-11-20T04:05:10;36.3;;;20.3;;
4325;SDS011;58429;49.826;10.880;2022-11-20T04:06:11;33.3;;;20.6;;
4325;SDS011;58429;49.826;10.880;2022-11-20T04:07:10;33.3;;;20.6;;
4325;SDS011;58429;49.826;10.880;2022-11-20T04:08:10;33.3;;;20.6;;
4325;SDS011;58429;49.826;10.880;2022-11-20T04:09:10;33.5;;;21.7;;
4325;SDS011;58429;49.826;10.880;2022-11-20T04:10:10;33.5;;;21.7;;
4325;SDS011;58429;49.826;10.880;2022-11-20T04:11:11;33.5;;;21.7;;
4325;SDS011;58429;49.826;10.880;2022-11-20T04:12:10;34.3;;;20.5;;
4325;SDS011;58429;49.826;10.880;2022-11-20T04:13:10;34.3;;;20.5;;
4325;SDS011;58429;49.826;10.880;2022-11-20T04:14:12;34.3;;;20.5;;
4325;SDS011;58429;49.826;10.880;2022-11-20T04:15:11;33.9;;;21.5;;
4325;SDS011;58429;49.826;10.880;2022-11-20T04:16:11;33.9;;;21.5;;
4325;SDS011;58429;49.826;10.880;2022-11-20T04:17:10;33.9;;;21.5;;
4325;SDS011;58429;49.826;10.880;2022-11-20T04:18:10;33.7;;;20.5;;
4325;SDS011;58429;49.826;10.880;2022-11-20T04:19:11;33.7;;;20.5;;
4325;SDS011;58429;49.826;10.880;2022-11-20T04:20:10;33.7;;;20.5;;
4325;SDS011;58429;49.826;10.880;2022-11-20T04:21:10;34.9;;;21.6;;
4325;SDS011;58429;49.826;10.880;2022-11-20T04:22:10;34.9;;;21.6;;
4325;SDS011;58429;49.826;10.880;2022-11-20T04:23:10;34.9;;;21.6;;
4325;SDS011;58429;49.826;10.880;2022-11-20T04:24:10;36.2;;;21.5;;
4325;SDS011;58429;49.826;10.880;2022-11-20T04:25:10;36.2;;;21.5;;
4325;SDS011;58429;49.826;10.880;2022-11-20T04:26:11;36.2;;;21.5;;
4325;SDS011;58429;49.826;10.880;2022-11-20T04:27:10;36.2;;;21.5;;
4325;SDS011;58429;49.826;10.880;2022-11-20T04:28:10;33.6;;;20.6;;
4325;SDS011;58429;49.826;10.880;2022-11-20T04:29:11;33.6;;;20.6;;
4325;SDS011;58429;49.826;10.880;2022-11-20T04:30:11;33.6;;;20.6;;
4325;SDS011;58429;49.826;10.880;2022-11-20T04:31:12;34.4;;;20.9;;
4325;SDS011;58429;49.826;10.880;2022-11-20T04:32:10;34.4;;;20.9;;
4325;SDS011;58429;49.826;10.880;2022-11-20T04:33:10;34.4;;;20.9;;
4325;SDS011;58429;49.826;10.880;2022-11-20T04:34:10;33.9;;;21.6;;
4325;SDS011;58429;49.826;10.880;2022-11-20T04:35:10;33.9;;;21.6;;
4325;SDS011;58429;49.826;10.880;2022-11-20T04:36:11;33.9;;;21.6;;
4325;SDS011;58429;49.826;10.880;2022-11-20T04:37:10;34;;;20.8;;
4325;SDS011;58429;49.826;10.880;2022-11-20T04:38:10;34;;;20.8;;
4325;SDS011;58429;49.826;10.880;2022-11-20T04:39:11;34;;;20.8;;
4325;SDS011;58429;49.826;10.880;2022-11-20T04:40:11;34.3;;;21.5;;
4325;SDS011;58429;49.826;10.880;2022-11-20T04:41:12;34.3;;;21.5;;
4325;SDS011;58429;49.826;10.880;2022-11-20T04:42:10;34.3;;;21.5;;
4325;SDS011;58429;49.826;10.880;2022-11-20T04:43:10;36.4;;;22.6;;
4325;SDS011;58429;49.826;10.880;2022-11-20T04:44:10;36.4;;;22.6;;
4325;SDS011;58429;49.826;10.880;2022-11-20T04:45:10;36.4;;;22.6;;
4325;SDS011;58429;49.826;10.880;2022-11-20T04:46:10;35.3;;;22.1;;
4325;SDS011;58429;49.826;10.880;2022-11-20T04:47:11;35.3;;;22.1;;
4325;SDS011;58429;49.826;10.880;2022-11-20T04:48:10;35.3;;;22.1;;
4325;SDS011;58429;49.826;10.880;2022-11-20T04:49:10;35.1;;;20.4;;
4325;SDS011;58429;49.826;10.880;2022-11-20T04:50:11;35.1;;;20.4;;
4325;SDS011;58429;49.826;10.880;2022-11-20T04:51:10;35.1;;;20.4;;
4325;SDS011;58429;49.826;10.880;2022-11-20T04:52:10;34.8;;;20.8;;
4325;SDS011;58429;49.826;10.880;2022-11-20T04:53:10;34.8;;;20.8;;
4325;SDS011;58429;49.826;10.880;2022-11-20T04:54:10;34.8;;;20.8;;
4325;SDS011;58429;49.826;10.880;2022-11-20T04:55:10;35.9;;;21.8;;
4325;SDS011;58429;49.826;10.880;2022-11-20T04:56:11;35.9;;;21.8;;
4325;SDS011;58429;49.826;10.880;2022-11-20T04:57:12;35.9;;;21.8;;
4325;SDS011;58429;49.826;10.880;2022-11-20T04:58:10;36.2;;;21.3;;
4325;SDS011;58429;49.826;10.880;2022-11-20T04:59:10;36.2;;;21.3;;
4325;SDS011;58429;49.826;10.880;2022-11-20T05:00:11;36.2;;;21.3;;
4325;SDS011;58429;49.826;10.880;2022-11-20T05:01:11;34.8;;;21.9;;
4325;SDS011;58429;49.826;10.880;2022-11-20T05:02:10;34.8;;;21.9;;
4325;SDS011;58429;49.826;10.880;2022-11-20T05:03:11;34.8;;;21.9;;
4325;SDS011;58429;49.826;10.880;2022-11-20T05:04:10;38;;;22.7;;
4325;SDS011;58429;49.826;10.880;2022-11-20T05:05:10;38;;;22.7;;
4325;SDS011;58429;49.826;10.880;2022-11-20T05:06:11;38;;;22.7;;
4325;SDS011;58429;49.826;10.880;2022-11-20T05:07:10;35.2;;;21.6;;
4325;SDS011;58429;49.826;10.880;2022-11-20T05:08:10;35.2;;;21.6;;
4325;SDS011;58429;49.826;10.880;2022-11-20T05:09:10;35.2;;;21.6;;
4325;SDS011;58429;49.826;10.880;2022-11-20T05:10:10;35.5;;;21.9;;
4325;SDS011;58429;49.826;10.880;2022-11-20T05:11:11;35.5;;;21.9;;
4325;SDS011;58429;49.826;10.880;2022-11-20T05:12:10;35.5;;;21.9;;
4325;SDS011;58429;49.826;10.880;2022-11-20T05:13:10;33.5;;;20.6;;
4325;SDS011;58429;49.826;10.880;2022-11-20T05:14:10;33.5;;;20.6;;
4325;SDS011;58429;49.826;10.880;2022-11-20T05:15:10;33.5;;;20.6;;
4325;SDS011;58429;49.826;10.880;2022-11-20T05:16:11;36;;;21.7;;
4325;SDS011;58429;49.826;10.880;2022-11-20T05:17:10;36;;;21.7;;
4325;SDS011;58429;49.826;10.880;2022-11-20T05:18:10;36;;;21.7;;
4325;SDS011;58429;49.826;10.880;2022-11-20T05:19:10;37;;;23.4;;
4325;SDS011;58429;49.826;10.880;2022-11-20T05:20:11;37;;;23.4;;
4325;SDS011;58429;49.826;10.880;2022-11-20T05:21:11;37;;;23.4;;
4325;SDS011;58429;49.826;10.880;2022-11-20T05:22:10;37.6;;;23.7;;
4325;SDS011;58429;49.826;10.880;2022-11-20T05:23:10;37.6;;;23.7;;
4325;SDS011;58429;49.826;10.880;2022-11-20T05:24:11;37.6;;;23.7;;
4325;SDS011;58429;49.826;10.880;2022-11-20T05:25:11;38.2;;;23.6;;
4325;SDS011;58429;49.826;10.880;2022-11-20T05:26:12;38.2;;;23.6;;
4325;SDS011;58429;49.826;10.880;2022-11-20T05:27:10;38.2;;;23.6;;
4325;SDS011;58429;49.826;10.880;2022-11-20T05:28:10;36.4;;;22.4;;
4325;SDS011;58429;49.826;10.880;2022-11-20T05:29:11;36.4;;;22.4;;
4325;SDS011;58429;49.826;10.880;2022-11-20T05:30:11;36.4;;;22.4;;
4325;SDS011;58429;49.826;10.880;2022-11-20T05:31:13;39.4;;;23.3;;
4325;SDS011;58429;49.826;10.880;2022-11-20T05:32:10;39.4;;;23.3;;
4325;SDS011;58429;49.826;10.880;2022-11-20T05:33:10;39.4;;;23.3;;
4325;SDS011;58429;49.826;10.880;2022-11-20T05:34:10;38.7;;;23.3;;
4325;SDS011;58429;49.826;10.880;2022-11-20T05:35:10;38.7;;;23.3;;
4325;SDS011;58429;49.826;10.880;2022-11-20T05:36:11;38.7;;;23.3;;
4325;SDS011;58429;49.826;10.880;2022-11-20T05:37:11;37.8;;;24;;
4325;SDS011;58429;49.826;10.880;2022-11-20T05:38:10;37.8;;;24;;
4325;SDS011;58429;49.826;10.880;2022-11-20T05:39:10;37.8;;;24;;
4325;SDS011;58429;49.826;10.880;2022-11-20T05:40:11;36.5;;;21.8;;
4325;SDS011;58429;49.826;10.880;2022-11-20T05:41:11;36.5;;;21.8;;
4325;SDS011;58429;49.826;10.880;2022-11-20T05:42:10;36.5;;;21.8;;
4325;SDS011;58429;49.826;10.880;2022-11-20T05:43:10;33.6;;;21.7;;
4325;SDS011;58429;49.826;10.880;2022-11-20T05:44:11;33.6;;;21.7;;
4325;SDS011;58429;49.826;10.880;2022-11-20T05:45:10;33.6;;;21.7;;
4325;SDS011;58429;49.826;10.880;2022-11-20T05:46:11;36;;;22.3;;
4325;SDS011;58429;49.826;10.880;2022-11-20T05:47:10;36;;;22.3;;
4325;SDS011;58429;49.826;10.880;2022-11-20T05:48:10;36;;;22.3;;
4325;SDS011;58429;49.826;10.880;2022-11-20T05:49:11;37.1;;;22.5;;
4325;SDS011;58429;49.826;10.880;2022-11-20T05:50:10;37.1;;;22.5;;
4325;SDS011;58429;49.826;10.880;2022-11-20T05:51:11;37.1;;;22.5;;
4325;SDS011;58429;49.826;10.880;2022-11-20T05:52:10;33.4;;;20;;
4325;SDS011;58429;49.826;10.880;2022-11-20T05:53:10;33.4;;;20;;
4325;SDS011;58429;49.826;10.880;2022-11-20T05:54:10;33.4;;;20;;
4325;SDS011;58429;49.826;10.880;2022-11-20T05:55:10;35.1;;;22.5;;
4325;SDS011;58429;49.826;10.880;2022-11-20T05:56:11;35.1;;;22.5;;
4325;SDS011;58429;49.826;10.880;2022-11-20T05:57:10;35.1;;;22.5;;
4325;SDS011;58429;49.826;10.880;2022-11-20T05:58:10;35.3;;;21.8;;
4325;SDS011;58429;49.826;10.880;2022-11-20T05:59:10;35.3;;;21.8;;
4325;SDS011;58429;49.826;10.880;2022-11-20T06:00:11;35.3;;;21.8;;
4325;SDS011;58429;49.826;10.880;2022-11-20T06:01:12;32.2;;;19.7;;
4325;SDS011;58429;49.826;10.880;2022-11-20T06:02:10;32.2;;;19.7;;
4325;SDS011;58429;49.826;10.880;2022-11-20T06:03:10;32.2;;;19.7;;